AIH69B EGKK-LGSK
Flight info
| Callsign | AIH69B |
|---|---|
| Flight time | 3h 1m |
| Altitude | 35000 |
| Route | ODVIK Y311 DVR UL9 KONAN DCT KOK DCT RITAX DCT EDISA DCT KUNOD DCT GEDSO DCT GIMIX DCT GORPA DCT DEVUL DCT LIKVI DCT REMSO DCT MEDUX UM867 KOGAT DCT ERANA DCT TSL UL617 IBIDI |
| Aircraft | A321/M-SDE3FGHIRWY/LB1 |
Departure
| Time | 2026-05-04 09:47 |
|---|---|
| Airport | London Gatwick Airport (EGKK) |
Arrival
| Time | 2026-05-04 12:48 |
|---|---|
| Airport | Skiathos Island National Airport (LGSK) |
| Time | Latitude | Longitude | Altitude | Speed | Heading |
|---|---|---|---|---|---|
| 2026-05-04 08:46 | 51.15394 | -0.17940 | 204 ft | 0 kts | 167° |
| 2026-05-04 09:25 | 51.15396 | -0.17941 | 203 ft | 2 kts | 167° |
| 2026-05-04 09:25 | 51.15422 | -0.17950 | 207 ft | 4 kts | 167° |
| 2026-05-04 09:26 | 51.15445 | -0.17958 | 213 ft | 1 kts | 167° |
| 2026-05-04 09:26 | 51.15467 | -0.17961 | 211 ft | 4 kts | 208° |
| 2026-05-04 09:26 | 51.15480 | -0.17935 | 213 ft | 4 kts | 257° |
| 2026-05-04 09:26 | 51.15483 | -0.17912 | 214 ft | 0 kts | 257° |
| 2026-05-04 09:37 | 51.15481 | -0.17923 | 212 ft | 6 kts | 257° |
| 2026-05-04 09:38 | 51.15464 | -0.18046 | 203 ft | 10 kts | 257° |
| 2026-05-04 09:38 | 51.15461 | -0.18071 | 206 ft | 0 kts | 257° |
| 2026-05-04 09:38 | 51.15453 | -0.18123 | 206 ft | 8 kts | 250° |
| 2026-05-04 09:38 | 51.15394 | -0.18146 | 209 ft | 12 kts | 167° |
| 2026-05-04 09:39 | 51.15361 | -0.18134 | 213 ft | 10 kts | 168° |
| 2026-05-04 09:39 | 51.15314 | -0.18118 | 206 ft | 8 kts | 168° |
| 2026-05-04 09:39 | 51.15247 | -0.18096 | 204 ft | 7 kts | 168° |
| 2026-05-04 09:39 | 51.15198 | -0.18173 | 209 ft | 22 kts | 256° |
| 2026-05-04 09:40 | 51.15159 | -0.18499 | 209 ft | 30 kts | 258° |
| 2026-05-04 09:40 | 51.15116 | -0.18826 | 206 ft | 30 kts | 257° |
| 2026-05-04 09:40 | 51.15076 | -0.19136 | 204 ft | 26 kts | 257° |
| 2026-05-04 09:40 | 51.15037 | -0.19417 | 206 ft | 25 kts | 258° |
| 2026-05-04 09:41 | 51.15002 | -0.19675 | 207 ft | 23 kts | 257° |
| 2026-05-04 09:42 | 51.14816 | -0.21011 | 204 ft | 17 kts | 257° |
| 2026-05-04 09:43 | 51.14784 | -0.21200 | 213 ft | 18 kts | 253° |
| 2026-05-04 09:43 | 51.14748 | -0.21383 | 210 ft | 15 kts | 233° |
| 2026-05-04 09:43 | 51.14668 | -0.21369 | 207 ft | 13 kts | 139° |
| 2026-05-04 09:43 | 51.14606 | -0.21322 | 207 ft | 0 kts | 165° |
| 2026-05-04 09:44 | 51.14599 | -0.21319 | 210 ft | 4 kts | 165° |
| 2026-05-04 09:44 | 51.14551 | -0.21285 | 211 ft | 14 kts | 145° |
| 2026-05-04 09:44 | 51.14525 | -0.21136 | 203 ft | 10 kts | 75° |
| 2026-05-04 09:46 | 51.14552 | -0.20948 | 207 ft | 52 kts | 77° |
| 2026-05-04 09:46 | 51.14685 | -0.19974 | 213 ft | 124 kts | 78° |
| 2026-05-04 09:46 | 51.14909 | -0.18356 | 302 ft | 166 kts | 78° |
| 2026-05-04 09:47 | 51.15152 | -0.16640 | 1166 ft | 154 kts | 78° |
| 2026-05-04 09:47 | 51.15390 | -0.14992 | 1913 ft | 155 kts | 77° |
| 2026-05-04 09:49 | 51.16892 | -0.02174 | 4714 ft | 222 kts | 101° |
| 2026-05-04 09:49 | 51.16508 | 0.00365 | 4838 ft | 248 kts | 97° |
| 2026-05-04 09:49 | 51.16421 | 0.03206 | 5254 ft | 264 kts | 90° |
| 2026-05-04 09:51 | 51.16569 | 0.21710 | 9436 ft | 291 kts | 91° |
| 2026-05-04 09:51 | 51.16561 | 0.24955 | 10112 ft | 295 kts | 91° |
| 2026-05-04 09:51 | 51.16563 | 0.28240 | 10735 ft | 298 kts | 91° |
| 2026-05-04 09:51 | 51.16573 | 0.31554 | 11368 ft | 301 kts | 91° |
| 2026-05-04 09:52 | 51.16584 | 0.34897 | 12001 ft | 304 kts | 91° |
| 2026-05-04 09:52 | 51.16591 | 0.38278 | 12625 ft | 306 kts | 91° |
| 2026-05-04 09:52 | 51.16593 | 0.41687 | 13246 ft | 309 kts | 91° |
| 2026-05-04 09:52 | 51.16595 | 0.45132 | 13851 ft | 312 kts | 91° |
| 2026-05-04 09:53 | 51.16596 | 0.48610 | 14383 ft | 315 kts | 91° |
| 2026-05-04 09:53 | 51.16598 | 0.52178 | 14587 ft | 331 kts | 91° |
| 2026-05-04 09:53 | 51.16595 | 0.55945 | 14717 ft | 349 kts | 91° |
| 2026-05-04 09:53 | 51.16589 | 0.59905 | 14845 ft | 366 kts | 91° |
| 2026-05-04 09:54 | 51.16581 | 0.64046 | 14970 ft | 382 kts | 91° |
| 2026-05-04 09:54 | 51.16573 | 0.68348 | 15097 ft | 396 kts | 91° |
| 2026-05-04 09:54 | 51.16564 | 0.72820 | 15283 ft | 409 kts | 91° |
| 2026-05-04 09:54 | 51.16556 | 0.77382 | 15711 ft | 414 kts | 91° |
| 2026-05-04 09:55 | 51.16547 | 0.81982 | 16193 ft | 417 kts | 91° |
| 2026-05-04 09:55 | 51.16537 | 0.86626 | 16686 ft | 420 kts | 91° |
| 2026-05-04 09:55 | 51.16522 | 0.91303 | 17175 ft | 423 kts | 91° |
| 2026-05-04 09:55 | 51.16502 | 0.96006 | 17648 ft | 426 kts | 91° |
| 2026-05-04 09:56 | 51.16477 | 1.00748 | 18112 ft | 430 kts | 91° |
| 2026-05-04 09:56 | 51.16461 | 1.03909 | 18401 ft | 432 kts | 91° |
| 2026-05-04 09:56 | 51.16437 | 1.08703 | 18799 ft | 435 kts | 91° |
| 2026-05-04 09:56 | 51.16415 | 1.13534 | 19194 ft | 437 kts | 92° |
| 2026-05-04 09:57 | 51.16390 | 1.18387 | 19588 ft | 440 kts | 92° |
| 2026-05-04 09:57 | 51.16360 | 1.23278 | 19974 ft | 443 kts | 92° |
| 2026-05-04 09:57 | 51.16325 | 1.28202 | 20352 ft | 445 kts | 92° |
| 2026-05-04 09:57 | 51.16273 | 1.34759 | 20831 ft | 449 kts | 92° |
| 2026-05-04 09:58 | 51.16221 | 1.38115 | 21048 ft | 450 kts | 94° |
| 2026-05-04 09:58 | 51.16056 | 1.43103 | 21366 ft | 452 kts | 96° |
| 2026-05-04 09:58 | 51.15812 | 1.48115 | 21636 ft | 455 kts | 97° |
| 2026-05-04 10:00 | 51.13903 | 1.83866 | 23886 ft | 466 kts | 97° |
| 2026-05-04 10:00 | 51.13654 | 1.88933 | 24254 ft | 465 kts | 97° |
| 2026-05-04 10:02 | 51.11765 | 2.24669 | 26973 ft | 458 kts | 99° |
| 2026-05-04 10:04 | 51.09798 | 2.59690 | 29864 ft | 451 kts | 101° |
| 2026-05-04 10:04 | 51.09247 | 2.64556 | 30240 ft | 444 kts | 110° |
| 2026-05-04 10:04 | 51.08257 | 2.69164 | 30576 ft | 437 kts | 119° |
| 2026-05-04 10:04 | 51.06956 | 2.73523 | 30791 ft | 438 kts | 122° |
| 2026-05-04 10:05 | 51.05619 | 2.77888 | 31044 ft | 439 kts | 122° |
| 2026-05-04 10:05 | 51.04287 | 2.82254 | 31377 ft | 439 kts | 122° |
| 2026-05-04 10:05 | 51.02957 | 2.86618 | 31709 ft | 438 kts | 122° |
| 2026-05-04 10:05 | 51.01633 | 2.90966 | 32166 ft | 435 kts | 122° |
| 2026-05-04 10:06 | 51.00326 | 2.95263 | 32691 ft | 430 kts | 122° |
| 2026-05-04 10:06 | 50.99033 | 2.99512 | 33231 ft | 425 kts | 123° |
| 2026-05-04 10:06 | 50.97757 | 3.03699 | 33775 ft | 419 kts | 123° |
| 2026-05-04 10:08 | 50.89942 | 3.28841 | 31324 ft | 462 kts | 122° |
| 2026-05-04 10:08 | 50.88513 | 3.33442 | 31078 ft | 469 kts | 122° |
| 2026-05-04 10:08 | 50.87077 | 3.38097 | 30968 ft | 471 kts | 122° |
| 2026-05-04 10:08 | 50.85639 | 3.42765 | 31003 ft | 473 kts | 122° |
| 2026-05-04 10:09 | 50.82745 | 3.52111 | 30995 ft | 473 kts | 123° |
| 2026-05-04 10:09 | 50.79826 | 3.61410 | 30997 ft | 471 kts | 123° |
| 2026-05-04 10:10 | 50.76907 | 3.70664 | 31000 ft | 471 kts | 123° |
| 2026-05-04 10:10 | 50.73982 | 3.79927 | 30968 ft | 472 kts | 123° |
| 2026-05-04 10:11 | 50.71049 | 3.89175 | 31013 ft | 470 kts | 123° |
| 2026-05-04 10:11 | 50.68118 | 3.98365 | 31028 ft | 468 kts | 123° |
| 2026-05-04 10:12 | 50.65214 | 4.07460 | 31030 ft | 467 kts | 123° |
| 2026-05-04 10:12 | 50.62289 | 4.16583 | 31028 ft | 466 kts | 123° |
| 2026-05-04 10:13 | 50.59361 | 4.25681 | 31040 ft | 465 kts | 123° |
| 2026-05-04 10:13 | 50.56428 | 4.34750 | 31033 ft | 465 kts | 123° |
| 2026-05-04 10:14 | 50.53492 | 4.43803 | 31041 ft | 464 kts | 123° |
| 2026-05-04 10:16 | 50.41694 | 4.79846 | 30997 ft | 465 kts | 123° |
| 2026-05-04 10:16 | 50.38714 | 4.88864 | 31001 ft | 466 kts | 123° |
| 2026-05-04 10:17 | 50.35721 | 4.97884 | 31005 ft | 467 kts | 123° |
| 2026-05-04 10:19 | 50.23692 | 5.33890 | 31012 ft | 466 kts | 124° |
| 2026-05-04 10:19 | 50.20671 | 5.42842 | 31014 ft | 466 kts | 124° |
| 2026-05-04 10:20 | 50.17640 | 5.51764 | 30986 ft | 465 kts | 124° |
| 2026-05-04 10:20 | 50.14608 | 5.60686 | 30987 ft | 466 kts | 124° |
| 2026-05-04 10:21 | 50.11577 | 5.69607 | 30991 ft | 466 kts | 124° |
| 2026-05-04 10:21 | 50.08530 | 5.78524 | 30996 ft | 466 kts | 124° |
| 2026-05-04 10:22 | 50.03548 | 5.91354 | 31003 ft | 461 kts | 130° |
| 2026-05-04 10:23 | 49.99963 | 5.99611 | 31006 ft | 461 kts | 130° |
| 2026-05-04 10:25 | 49.86123 | 6.32438 | 31016 ft | 459 kts | 129° |
| 2026-05-04 10:25 | 49.82617 | 6.40699 | 30990 ft | 459 kts | 129° |
| 2026-05-04 10:26 | 49.79104 | 6.48958 | 30995 ft | 459 kts | 129° |
| 2026-05-04 10:26 | 49.75596 | 6.57197 | 31002 ft | 458 kts | 129° |
| 2026-05-04 10:27 | 49.72106 | 6.65355 | 31018 ft | 458 kts | 129° |
| 2026-05-04 10:27 | 49.68590 | 6.73543 | 31014 ft | 457 kts | 129° |
| 2026-05-04 10:28 | 49.65069 | 6.81724 | 30990 ft | 458 kts | 129° |
| 2026-05-04 10:28 | 49.61537 | 6.89913 | 30996 ft | 459 kts | 129° |
| 2026-05-04 10:29 | 49.57998 | 6.98103 | 31007 ft | 460 kts | 129° |
| 2026-05-04 10:29 | 49.54440 | 7.06289 | 31017 ft | 459 kts | 129° |
| 2026-05-04 10:30 | 49.50887 | 7.14450 | 31014 ft | 459 kts | 129° |
| 2026-05-04 10:30 | 49.47330 | 7.22599 | 31000 ft | 459 kts | 129° |
| 2026-05-04 10:31 | 49.43758 | 7.30746 | 31004 ft | 460 kts | 129° |
| 2026-05-04 10:32 | 49.31193 | 7.59246 | 31004 ft | 461 kts | 129° |
| 2026-05-04 10:33 | 49.27574 | 7.67380 | 31004 ft | 462 kts | 129° |
| 2026-05-04 10:33 | 49.23969 | 7.75451 | 31004 ft | 462 kts | 129° |
| 2026-05-04 10:34 | 49.20347 | 7.83563 | 31014 ft | 462 kts | 129° |
| 2026-05-04 10:34 | 49.16715 | 7.91668 | 31020 ft | 462 kts | 129° |
| 2026-05-04 10:35 | 49.13080 | 7.99768 | 31001 ft | 462 kts | 129° |
| 2026-05-04 10:35 | 49.09434 | 8.07845 | 31007 ft | 462 kts | 129° |
| 2026-05-04 10:36 | 49.05778 | 8.15917 | 31013 ft | 463 kts | 129° |
| 2026-05-04 10:36 | 49.02119 | 8.23985 | 31016 ft | 463 kts | 129° |
| 2026-05-04 10:37 | 48.98450 | 8.32032 | 31024 ft | 462 kts | 130° |
| 2026-05-04 10:37 | 48.94686 | 8.39921 | 31032 ft | 460 kts | 131° |
| 2026-05-04 10:39 | 48.81273 | 8.67143 | 31027 ft | 460 kts | 131° |
| 2026-05-04 10:40 | 48.77455 | 8.74911 | 31015 ft | 459 kts | 131° |
| 2026-05-04 10:40 | 48.73840 | 8.82218 | 30995 ft | 461 kts | 131° |
| 2026-05-04 10:41 | 48.69998 | 8.89984 | 31026 ft | 460 kts | 131° |
| 2026-05-04 10:41 | 48.66192 | 8.97670 | 31038 ft | 459 kts | 131° |
| 2026-05-04 10:42 | 48.62358 | 9.05370 | 31043 ft | 458 kts | 131° |
| 2026-05-04 10:42 | 48.58496 | 9.13092 | 31041 ft | 457 kts | 131° |
| 2026-05-04 10:43 | 48.54687 | 9.20689 | 31029 ft | 457 kts | 131° |
| 2026-05-04 10:45 | 48.39316 | 9.51168 | 31005 ft | 457 kts | 131° |
| 2026-05-04 10:45 | 48.35459 | 9.58759 | 31015 ft | 457 kts | 131° |
| 2026-05-04 10:46 | 48.31570 | 9.66305 | 31028 ft | 456 kts | 133° |
| 2026-05-04 10:46 | 48.27581 | 9.73715 | 31040 ft | 456 kts | 133° |
| 2026-05-04 10:47 | 48.23565 | 9.81070 | 31036 ft | 456 kts | 133° |
| 2026-05-04 10:47 | 48.19557 | 9.88440 | 31003 ft | 456 kts | 133° |
| 2026-05-04 10:49 | 48.03471 | 10.18036 | 31015 ft | 459 kts | 133° |
| 2026-05-04 10:50 | 47.99425 | 10.25420 | 31014 ft | 459 kts | 133° |
| 2026-05-04 10:52 | 47.83175 | 10.54865 | 31017 ft | 460 kts | 133° |
| 2026-05-04 10:52 | 47.79098 | 10.62201 | 31008 ft | 460 kts | 133° |
| 2026-05-04 10:54 | 47.62762 | 10.91447 | 31007 ft | 461 kts | 133° |
| 2026-05-04 10:56 | 47.46276 | 11.20610 | 30987 ft | 462 kts | 133° |
| 2026-05-04 10:57 | 47.42144 | 11.27873 | 31000 ft | 462 kts | 133° |
| 2026-05-04 10:57 | 47.38022 | 11.35101 | 30996 ft | 455 kts | 133° |
| 2026-05-04 10:58 | 47.33969 | 11.42186 | 31003 ft | 450 kts | 133° |
| 2026-05-04 10:58 | 47.29915 | 11.49233 | 31528 ft | 450 kts | 133° |
| 2026-05-04 10:58 | 47.27900 | 11.52732 | 31953 ft | 448 kts | 133° |
| 2026-05-04 10:59 | 47.25886 | 11.56228 | 32349 ft | 447 kts | 133° |
| 2026-05-04 10:59 | 47.24552 | 11.58542 | 32621 ft | 446 kts | 133° |
| 2026-05-04 10:59 | 47.22545 | 11.62021 | 32943 ft | 446 kts | 133° |
| 2026-05-04 11:00 | 47.18526 | 11.68958 | 33017 ft | 446 kts | 134° |
| 2026-05-04 11:01 | 47.05816 | 11.94686 | 33056 ft | 452 kts | 116° |
| 2026-05-04 11:02 | 47.04587 | 11.98921 | 33050 ft | 451 kts | 116° |
| 2026-05-04 11:05 | 46.85787 | 12.62272 | 33111 ft | 453 kts | 116° |
| 2026-05-04 11:06 | 46.83253 | 12.70694 | 33100 ft | 453 kts | 116° |
| 2026-05-04 11:06 | 46.80719 | 12.79114 | 33085 ft | 454 kts | 116° |
| 2026-05-04 11:10 | 46.62687 | 13.38038 | 33109 ft | 456 kts | 115° |
| 2026-05-04 11:12 | 46.52152 | 13.71610 | 33090 ft | 459 kts | 121° |
| 2026-05-04 11:12 | 46.48740 | 13.79416 | 33090 ft | 458 kts | 124° |
| 2026-05-04 11:13 | 46.45275 | 13.87184 | 33104 ft | 459 kts | 124° |
| 2026-05-04 11:13 | 46.41804 | 13.94947 | 33095 ft | 459 kts | 124° |
| 2026-05-04 11:14 | 46.38323 | 14.02713 | 33101 ft | 459 kts | 124° |
| 2026-05-04 11:16 | 46.24338 | 14.33660 | 33095 ft | 460 kts | 124° |
| 2026-05-04 11:16 | 46.20830 | 14.41376 | 33105 ft | 459 kts | 124° |
| 2026-05-04 11:17 | 46.17314 | 14.49077 | 33095 ft | 459 kts | 124° |
| 2026-05-04 11:19 | 46.03218 | 14.79767 | 33102 ft | 459 kts | 124° |
| 2026-05-04 11:19 | 45.99681 | 14.87402 | 33104 ft | 459 kts | 124° |
| 2026-05-04 11:20 | 45.96167 | 14.94985 | 33099 ft | 459 kts | 124° |
| 2026-05-04 11:20 | 45.92625 | 15.02614 | 33099 ft | 459 kts | 124° |
| 2026-05-04 11:22 | 45.78387 | 15.33028 | 33103 ft | 459 kts | 123° |
| 2026-05-04 11:23 | 45.74462 | 15.40242 | 33103 ft | 459 kts | 130° |
| 2026-05-04 11:25 | 45.60140 | 15.64796 | 33116 ft | 459 kts | 130° |
| 2026-05-04 11:25 | 45.56046 | 15.71799 | 33115 ft | 459 kts | 130° |
| 2026-05-04 11:27 | 45.37515 | 16.03168 | 33113 ft | 460 kts | 130° |
| 2026-05-04 11:28 | 45.33378 | 16.10124 | 33107 ft | 461 kts | 129° |
| 2026-05-04 11:28 | 45.29234 | 16.17074 | 33106 ft | 461 kts | 130° |
| 2026-05-04 11:29 | 45.25084 | 16.24016 | 33121 ft | 461 kts | 130° |
| 2026-05-04 11:29 | 45.20930 | 16.30942 | 33116 ft | 461 kts | 130° |
| 2026-05-04 11:33 | 44.91257 | 16.78542 | 33111 ft | 461 kts | 131° |
| 2026-05-04 11:33 | 44.86974 | 16.85276 | 33117 ft | 461 kts | 131° |
| 2026-05-04 11:34 | 44.82678 | 16.91997 | 33120 ft | 462 kts | 131° |
| 2026-05-04 11:34 | 44.78374 | 16.98711 | 33126 ft | 462 kts | 131° |
| 2026-05-04 11:35 | 44.74069 | 17.05419 | 33126 ft | 462 kts | 131° |
| 2026-05-04 11:35 | 44.69763 | 17.12121 | 33125 ft | 462 kts | 131° |
| 2026-05-04 11:36 | 44.65455 | 17.18813 | 33119 ft | 462 kts | 131° |
| 2026-05-04 11:36 | 44.61136 | 17.25504 | 33130 ft | 462 kts | 131° |
| 2026-05-04 11:37 | 44.56832 | 17.32139 | 33129 ft | 463 kts | 131° |
| 2026-05-04 11:37 | 44.52468 | 17.38844 | 33128 ft | 463 kts | 131° |
| 2026-05-04 11:38 | 44.48128 | 17.45515 | 33131 ft | 463 kts | 131° |
| 2026-05-04 11:38 | 44.43785 | 17.52177 | 33142 ft | 463 kts | 131° |
| 2026-05-04 11:39 | 44.39436 | 17.58830 | 33130 ft | 464 kts | 131° |
| 2026-05-04 11:41 | 44.24155 | 17.82081 | 33140 ft | 465 kts | 131° |
| 2026-05-04 11:41 | 44.19768 | 17.88713 | 33138 ft | 465 kts | 131° |
| 2026-05-04 11:42 | 44.15369 | 17.95338 | 33147 ft | 466 kts | 131° |
| 2026-05-04 11:42 | 44.11001 | 18.01918 | 33132 ft | 466 kts | 131° |
| 2026-05-04 11:43 | 44.06588 | 18.08538 | 33154 ft | 467 kts | 131° |
| 2026-05-04 11:43 | 44.02159 | 18.15142 | 33147 ft | 467 kts | 131° |
| 2026-05-04 11:44 | 43.97727 | 18.21747 | 33153 ft | 468 kts | 131° |
| 2026-05-04 11:44 | 43.93291 | 18.28350 | 33153 ft | 468 kts | 131° |
| 2026-05-04 11:45 | 43.88847 | 18.34947 | 33143 ft | 468 kts | 131° |
| 2026-05-04 11:45 | 43.84393 | 18.41532 | 33135 ft | 469 kts | 131° |
| 2026-05-04 11:46 | 43.79928 | 18.48118 | 33146 ft | 469 kts | 131° |
| 2026-05-04 11:46 | 43.75459 | 18.54698 | 33148 ft | 469 kts | 131° |
| 2026-05-04 11:47 | 43.70988 | 18.61286 | 33169 ft | 470 kts | 131° |
| 2026-05-04 11:47 | 43.66513 | 18.67857 | 33164 ft | 470 kts | 131° |
| 2026-05-04 11:48 | 43.62777 | 18.73311 | 33156 ft | 470 kts | 131° |
| 2026-05-04 11:48 | 43.58279 | 18.79863 | 33142 ft | 471 kts | 131° |
| 2026-05-04 11:49 | 43.53775 | 18.86426 | 33163 ft | 471 kts | 131° |
| 2026-05-04 11:49 | 43.49268 | 18.92986 | 33158 ft | 472 kts | 131° |
| 2026-05-04 11:50 | 43.44755 | 18.99558 | 33158 ft | 472 kts | 131° |
| 2026-05-04 11:50 | 43.40308 | 19.06197 | 33155 ft | 472 kts | 130° |
| 2026-05-04 11:51 | 43.35879 | 19.12857 | 33170 ft | 472 kts | 130° |
| 2026-05-04 11:51 | 43.31417 | 19.19496 | 33156 ft | 473 kts | 130° |
| 2026-05-04 11:52 | 43.26924 | 19.26110 | 33152 ft | 474 kts | 130° |
| 2026-05-04 11:52 | 43.22427 | 19.32724 | 33150 ft | 474 kts | 130° |
| 2026-05-04 11:53 | 43.17933 | 19.39343 | 33152 ft | 477 kts | 130° |
| 2026-05-04 11:53 | 43.13392 | 19.46025 | 33165 ft | 479 kts | 130° |
| 2026-05-04 11:55 | 42.95223 | 19.72555 | 33143 ft | 479 kts | 130° |
| 2026-05-04 11:56 | 42.90668 | 19.79189 | 33144 ft | 479 kts | 130° |
| 2026-05-04 11:56 | 42.86103 | 19.85815 | 33166 ft | 479 kts | 130° |
| 2026-05-04 11:57 | 42.81522 | 19.92428 | 33155 ft | 480 kts | 130° |
| 2026-05-04 11:57 | 42.76928 | 19.99041 | 33153 ft | 481 kts | 130° |
| 2026-05-04 11:58 | 42.72403 | 20.05739 | 33154 ft | 480 kts | 127° |
| 2026-05-04 11:58 | 42.68180 | 20.12747 | 33163 ft | 479 kts | 125° |
| 2026-05-04 11:59 | 42.64042 | 20.19840 | 33179 ft | 479 kts | 125° |
| 2026-05-04 11:59 | 42.59842 | 20.26862 | 33154 ft | 479 kts | 126° |
| 2026-05-04 12:00 | 42.55580 | 20.33825 | 33156 ft | 480 kts | 126° |
| 2026-05-04 12:00 | 42.51295 | 20.40790 | 33153 ft | 481 kts | 126° |
| 2026-05-04 12:01 | 42.47018 | 20.47773 | 33191 ft | 482 kts | 126° |
| 2026-05-04 12:02 | 42.32004 | 20.72168 | 33172 ft | 482 kts | 126° |
| 2026-05-04 12:03 | 42.27699 | 20.79116 | 33167 ft | 483 kts | 126° |
| 2026-05-04 12:03 | 42.23413 | 20.86012 | 33190 ft | 482 kts | 126° |
| 2026-05-04 12:04 | 42.19099 | 20.92945 | 33179 ft | 482 kts | 126° |
| 2026-05-04 12:04 | 42.14792 | 20.99855 | 33174 ft | 482 kts | 126° |
| 2026-05-04 12:05 | 42.10388 | 21.06653 | 33161 ft | 484 kts | 133° |
| 2026-05-04 12:05 | 42.05493 | 21.12891 | 33161 ft | 485 kts | 133° |
| 2026-05-04 12:06 | 42.00592 | 21.19104 | 33163 ft | 483 kts | 133° |
| 2026-05-04 12:06 | 41.95701 | 21.25303 | 33148 ft | 483 kts | 133° |
| 2026-05-04 12:07 | 41.90807 | 21.31495 | 33138 ft | 483 kts | 133° |
| 2026-05-04 12:07 | 41.85903 | 21.37672 | 33139 ft | 484 kts | 133° |
| 2026-05-04 12:08 | 41.80991 | 21.43842 | 33130 ft | 484 kts | 133° |
| 2026-05-04 12:08 | 41.76077 | 21.50016 | 33132 ft | 484 kts | 133° |
| 2026-05-04 12:09 | 41.71161 | 21.56172 | 33111 ft | 485 kts | 133° |
| 2026-05-04 12:09 | 41.66231 | 21.62333 | 33121 ft | 485 kts | 133° |
| 2026-05-04 12:10 | 41.61293 | 21.68493 | 33128 ft | 486 kts | 133° |
| 2026-05-04 12:10 | 41.56346 | 21.74646 | 33133 ft | 486 kts | 134° |
| 2026-05-04 12:11 | 41.51393 | 21.80795 | 33173 ft | 486 kts | 133° |
| 2026-05-04 12:11 | 41.46446 | 21.86927 | 33143 ft | 486 kts | 134° |
| 2026-05-04 12:12 | 41.41489 | 21.93055 | 33146 ft | 486 kts | 134° |
| 2026-05-04 12:12 | 41.36531 | 21.99176 | 33139 ft | 486 kts | 134° |
| 2026-05-04 12:14 | 41.16687 | 22.23509 | 33147 ft | 485 kts | 134° |
| 2026-05-04 12:15 | 41.11563 | 22.29359 | 33141 ft | 487 kts | 138° |
| 2026-05-04 12:15 | 41.06249 | 22.34933 | 33135 ft | 487 kts | 139° |
| 2026-05-04 12:16 | 41.00928 | 22.40484 | 33135 ft | 487 kts | 139° |
| 2026-05-04 12:16 | 40.95656 | 22.46106 | 33151 ft | 487 kts | 138° |
| 2026-05-04 12:17 | 40.90418 | 22.51752 | 33151 ft | 485 kts | 138° |
| 2026-05-04 12:17 | 40.85183 | 22.57363 | 33146 ft | 484 kts | 138° |
| 2026-05-04 12:18 | 40.79947 | 22.62924 | 33144 ft | 483 kts | 139° |
| 2026-05-04 12:18 | 40.74712 | 22.68473 | 33141 ft | 482 kts | 139° |
| 2026-05-04 12:19 | 40.69491 | 22.74011 | 33135 ft | 482 kts | 138° |
| 2026-05-04 12:19 | 40.64256 | 22.79561 | 33160 ft | 483 kts | 139° |
| 2026-05-04 12:20 | 40.59028 | 22.85078 | 33167 ft | 481 kts | 139° |
| 2026-05-04 12:20 | 40.53790 | 22.90588 | 33109 ft | 484 kts | 139° |
| 2026-05-04 12:21 | 40.48514 | 22.96126 | 33110 ft | 487 kts | 140° |
| 2026-05-04 12:21 | 40.42645 | 23.00620 | 33110 ft | 492 kts | 157° |
| 2026-05-04 12:22 | 40.36271 | 23.03784 | 33112 ft | 494 kts | 158° |
| 2026-05-04 12:22 | 40.29846 | 23.06984 | 33118 ft | 493 kts | 158° |
| 2026-05-04 12:23 | 40.23531 | 23.10132 | 33128 ft | 482 kts | 158° |
| 2026-05-04 12:23 | 40.17283 | 23.13231 | 33128 ft | 477 kts | 158° |
| 2026-05-04 12:24 | 40.11089 | 23.16296 | 33060 ft | 476 kts | 158° |
| 2026-05-04 12:24 | 40.07979 | 23.17832 | 31937 ft | 483 kts | 158° |
| 2026-05-04 12:24 | 40.04810 | 23.19396 | 30781 ft | 489 kts | 158° |
| 2026-05-04 12:25 | 40.01636 | 23.20962 | 29759 ft | 486 kts | 158° |
| 2026-05-04 12:25 | 39.98474 | 23.22519 | 28538 ft | 487 kts | 158° |
| 2026-05-04 12:25 | 39.95302 | 23.24079 | 27247 ft | 488 kts | 158° |
| 2026-05-04 12:25 | 39.92123 | 23.25638 | 25960 ft | 487 kts | 158° |
| 2026-05-04 12:26 | 39.88955 | 23.27190 | 24674 ft | 486 kts | 158° |
| 2026-05-04 12:26 | 39.85798 | 23.28736 | 23578 ft | 481 kts | 158° |
| 2026-05-04 12:26 | 39.82699 | 23.30251 | 22662 ft | 471 kts | 158° |
| 2026-05-04 12:26 | 39.79662 | 23.31737 | 21713 ft | 463 kts | 158° |
| 2026-05-04 12:27 | 39.76663 | 23.33205 | 20779 ft | 457 kts | 158° |
| 2026-05-04 12:27 | 39.73716 | 23.34646 | 20338 ft | 450 kts | 158° |
| 2026-05-04 12:27 | 39.70789 | 23.36074 | 20139 ft | 449 kts | 158° |
| 2026-05-04 12:27 | 39.67870 | 23.37496 | 20129 ft | 448 kts | 158° |
| 2026-05-04 12:28 | 39.64944 | 23.38923 | 20136 ft | 449 kts | 158° |
| 2026-05-04 12:28 | 39.62021 | 23.40347 | 20136 ft | 449 kts | 158° |
| 2026-05-04 12:28 | 39.59106 | 23.41763 | 20137 ft | 441 kts | 158° |
| 2026-05-04 12:28 | 39.56307 | 23.43115 | 20142 ft | 418 kts | 158° |
| 2026-05-04 12:29 | 39.53647 | 23.44398 | 20080 ft | 401 kts | 158° |
| 2026-05-04 12:29 | 39.51076 | 23.45641 | 19955 ft | 388 kts | 158° |
| 2026-05-04 12:29 | 39.48595 | 23.46841 | 19838 ft | 374 kts | 158° |
| 2026-05-04 12:29 | 39.46193 | 23.48003 | 19714 ft | 362 kts | 158° |
| 2026-05-04 12:30 | 39.43880 | 23.49126 | 19591 ft | 350 kts | 158° |
| 2026-05-04 12:30 | 39.41630 | 23.50221 | 19367 ft | 342 kts | 158° |
| 2026-05-04 12:30 | 39.39418 | 23.51297 | 19027 ft | 339 kts | 158° |
| 2026-05-04 12:30 | 39.37217 | 23.52364 | 18660 ft | 337 kts | 158° |
| 2026-05-04 12:31 | 39.35029 | 23.53421 | 18267 ft | 335 kts | 158° |
| 2026-05-04 12:31 | 39.32861 | 23.54465 | 17588 ft | 331 kts | 158° |
| 2026-05-04 12:31 | 39.30708 | 23.55503 | 16835 ft | 329 kts | 158° |
| 2026-05-04 12:31 | 39.28568 | 23.56537 | 16109 ft | 328 kts | 158° |
| 2026-05-04 12:32 | 39.26438 | 23.57564 | 15407 ft | 326 kts | 157° |
| 2026-05-04 12:32 | 39.22273 | 23.59562 | 14321 ft | 315 kts | 157° |
| 2026-05-04 12:32 | 39.20201 | 23.60559 | 13473 ft | 321 kts | 157° |
| 2026-05-04 12:33 | 39.18119 | 23.61564 | 12572 ft | 326 kts | 157° |
| 2026-05-04 12:33 | 39.15984 | 23.62592 | 11680 ft | 329 kts | 158° |
| 2026-05-04 12:33 | 39.13827 | 23.63626 | 10803 ft | 332 kts | 158° |
| 2026-05-04 12:33 | 39.11660 | 23.64663 | 9938 ft | 332 kts | 158° |
| 2026-05-04 12:34 | 39.09585 | 23.65935 | 8997 ft | 330 kts | 143° |
| 2026-05-04 12:34 | 39.07924 | 23.67932 | 8094 ft | 326 kts | 125° |
| 2026-05-04 12:34 | 39.06851 | 23.70461 | 7226 ft | 321 kts | 106° |
| 2026-05-04 12:34 | 39.06465 | 23.73226 | 6762 ft | 303 kts | 90° |
| 2026-05-04 12:35 | 39.06588 | 23.75798 | 6622 ft | 275 kts | 71° |
| 2026-05-04 12:35 | 39.07321 | 23.77934 | 6512 ft | 250 kts | 52° |
| 2026-05-04 12:35 | 39.08396 | 23.79547 | 6366 ft | 228 kts | 38° |
| 2026-05-04 12:35 | 39.09655 | 23.80681 | 5977 ft | 217 kts | 23° |
| 2026-05-04 12:36 | 39.10587 | 23.81191 | 5642 ft | 214 kts | 14° |
| 2026-05-04 12:36 | 39.12031 | 23.81573 | 5145 ft | 210 kts | 0° |
| 2026-05-04 12:36 | 39.13433 | 23.81507 | 5004 ft | 205 kts | 348° |
| 2026-05-04 12:36 | 39.14833 | 23.81016 | 5007 ft | 207 kts | 335° |
| 2026-05-04 12:37 | 39.16077 | 23.80140 | 5008 ft | 207 kts | 323° |
| 2026-05-04 12:37 | 39.17141 | 23.78903 | 4904 ft | 206 kts | 310° |
| 2026-05-04 12:37 | 39.17938 | 23.77392 | 4770 ft | 200 kts | 298° |
| 2026-05-04 12:37 | 39.18417 | 23.75768 | 4634 ft | 190 kts | 286° |
| 2026-05-04 12:38 | 39.18610 | 23.74091 | 4500 ft | 190 kts | 275° |
| 2026-05-04 12:38 | 39.18597 | 23.72391 | 4373 ft | 189 kts | 271° |
| 2026-05-04 12:38 | 39.18520 | 23.70699 | 4240 ft | 189 kts | 270° |
| 2026-05-04 12:38 | 39.18432 | 23.69009 | 4111 ft | 189 kts | 270° |
| 2026-05-04 12:39 | 39.18344 | 23.67325 | 3983 ft | 188 kts | 270° |
| 2026-05-04 12:39 | 39.18260 | 23.65646 | 3858 ft | 188 kts | 270° |
| 2026-05-04 12:39 | 39.18177 | 23.63972 | 3730 ft | 187 kts | 270° |
| 2026-05-04 12:39 | 39.17898 | 23.62343 | 3607 ft | 189 kts | 248° |
| 2026-05-04 12:40 | 39.17065 | 23.61017 | 3487 ft | 197 kts | 220° |
| 2026-05-04 12:40 | 39.15795 | 23.60298 | 3353 ft | 203 kts | 205° |
| 2026-05-04 12:40 | 39.14516 | 23.59560 | 3307 ft | 201 kts | 212° |
| 2026-05-04 12:40 | 39.13277 | 23.58703 | 3302 ft | 202 kts | 213° |
| 2026-05-04 12:41 | 39.12042 | 23.57832 | 3315 ft | 200 kts | 213° |
| 2026-05-04 12:41 | 39.10871 | 23.57023 | 3340 ft | 183 kts | 213° |
| 2026-05-04 12:41 | 39.09785 | 23.56286 | 3317 ft | 173 kts | 213° |
| 2026-05-04 12:41 | 39.08726 | 23.55574 | 3312 ft | 171 kts | 212° |
| 2026-05-04 12:42 | 39.07672 | 23.54870 | 3309 ft | 171 kts | 212° |
| 2026-05-04 12:42 | 39.06618 | 23.54169 | 3309 ft | 170 kts | 212° |
| 2026-05-04 12:42 | 39.05563 | 23.53470 | 3288 ft | 172 kts | 212° |
| 2026-05-04 12:42 | 39.04506 | 23.52774 | 3126 ft | 169 kts | 212° |
| 2026-05-04 12:43 | 39.03477 | 23.52098 | 2929 ft | 161 kts | 212° |
| 2026-05-04 12:43 | 39.02537 | 23.51388 | 2759 ft | 152 kts | 229° |
| 2026-05-04 12:43 | 39.01988 | 23.50299 | 2671 ft | 143 kts | 258° |
| 2026-05-04 12:43 | 39.01935 | 23.49066 | 2569 ft | 137 kts | 287° |
| 2026-05-04 12:44 | 39.02343 | 23.47976 | 2461 ft | 137 kts | 313° |
| 2026-05-04 12:44 | 39.03097 | 23.47277 | 2356 ft | 137 kts | 339° |
| 2026-05-04 12:44 | 39.04006 | 23.46894 | 2242 ft | 138 kts | 342° |
| 2026-05-04 12:44 | 39.04975 | 23.46716 | 2120 ft | 139 kts | 359° |
| 2026-05-04 12:45 | 39.05939 | 23.46910 | 2006 ft | 141 kts | 9° |
| 2026-05-04 12:45 | 39.06888 | 23.47183 | 1888 ft | 139 kts | 10° |
| 2026-05-04 12:45 | 39.07816 | 23.47447 | 1768 ft | 139 kts | 10° |
| 2026-05-04 12:45 | 39.08765 | 23.47716 | 1638 ft | 140 kts | 11° |
| 2026-05-04 12:46 | 39.09708 | 23.47987 | 1491 ft | 138 kts | 10° |
| 2026-05-04 12:46 | 39.10647 | 23.48247 | 1321 ft | 138 kts | 10° |
| 2026-05-04 12:46 | 39.11580 | 23.48502 | 1117 ft | 137 kts | 11° |
| 2026-05-04 12:46 | 39.12510 | 23.48756 | 933 ft | 137 kts | 9° |
| 2026-05-04 12:47 | 39.13445 | 23.49006 | 741 ft | 137 kts | 13° |
| 2026-05-04 12:47 | 39.14382 | 23.49262 | 593 ft | 136 kts | 12° |
| 2026-05-04 12:47 | 39.15316 | 23.49524 | 456 ft | 139 kts | 14° |
| 2026-05-04 12:47 | 39.16256 | 23.49785 | 211 ft | 137 kts | 14° |
| 2026-05-04 12:48 | 39.17172 | 23.50124 | 30 ft | 137 kts | 19° |
| 2026-05-04 12:48 | 39.17891 | 23.50444 | 41 ft | 69 kts | 19° |
| 2026-05-04 12:48 | 39.18180 | 23.50574 | 52 ft | 37 kts | 20° |
| 2026-05-04 12:48 | 39.18391 | 23.50671 | 57 ft | 27 kts | 19° |
| 2026-05-04 12:49 | 39.18497 | 23.50739 | 59 ft | 12 kts | 10° |
| 2026-05-04 12:49 | 39.18494 | 23.50694 | 57 ft | 11 kts | 189° |
| 2026-05-04 12:49 | 39.18386 | 23.50667 | 56 ft | 19 kts | 201° |
| 2026-05-04 12:49 | 39.18249 | 23.50606 | 57 ft | 23 kts | 200° |
| 2026-05-04 12:50 | 39.18082 | 23.50529 | 49 ft | 28 kts | 201° |
| 2026-05-04 12:50 | 39.17941 | 23.50442 | 40 ft | 9 kts | 234° |
| 2026-05-04 12:50 | 39.17918 | 23.50365 | 40 ft | 8 kts | 250° |
| 2026-05-04 12:50 | 39.17864 | 23.50313 | 39 ft | 12 kts | 199° |
| 2026-05-04 12:51 | 39.17801 | 23.50288 | 39 ft | 7 kts | 198° |
| 2026-05-04 12:51 | 39.17791 | 23.50283 | 39 ft | 4 kts | 201° |
| 2026-05-04 12:51 | 39.17788 | 23.50240 | 39 ft | 8 kts | 289° |
| 2026-05-04 12:51 | 39.17801 | 23.50189 | 39 ft | 0 kts | 288° |